Terminal Aerodrome Forecast
Issued by NWS Upton, NY

Current Version | Previous Version | Text Only | Print | Product List | Glossary On
Versions: 1 2 3 4 5 6 7 8 9 10 11 12 13 14 15 16 17 18 19 20 21 22 23 24 25 26
000
FTUS41 KOKX 230500
TAFLGA
TAF
KLGA 230527Z 2306/2406 24010KT P6SM SCT150 OVC250 WS020/26040KT
     FM231300 22008KT P6SM SCT080 BKN120
     FM232100 19010KT P6SM SCT120 BKN200
     FM240400 15006KT P6SM BKN008 BKN120=

USA.gov is the U.S. government's official web portal to all federal, state and local government web resources and services.